Portada
METAR-TAF:

METAR-TAF

Aeroports :

Aeroport

Maraix, Turquia

latitud: 37-32-20N, longitud: 036-57-12E, altitud: 525 m

Observació

L'informe es va fer fa 22 minuts, a les 06:50 UTC
Vent 2 kt amb direcció variable
Temperatura 27°C
Humitat 34%
Pressió 1015 hPa
Visibilitat 10 km o més
sense núvols per sota de 1500 mi sense presència de cumulonimbus.

METAR: LTCN 270650Z VRB02KT CAVOK 27/10 Q1015 NOSIG

Hora: 10:12 (07:12 UTC)

Pronòstic

L'informe es va fer fa 2 hores i 32 minuts, a les 04:40 UTC
Pronòstic vàlid del 27 a les 06 UTC al 27 a les 15 UTC
Vent 2 kt amb direcció variable
Visibilitat 10 km o més
sense núvols per sota de 1500 mi sense presència de cumulonimbus.
Evolucionant progressivament
l' 27 a les 10 UTC al 27 a les 12 UTC
Vent 13 kt del Oest/Nord-Oest
Escasses núvols a una alçada de 4000 ft

TAF: LTCN 270440Z 2706/2715 VRB02KT CAVOK BECMG 2710/2712 30013KT FEW040

Observacions i pronòstics meteorològics de més de 4000 aeroports (METAR i TAF).

Les estacions disponibles són els punts grocs i vermells al mapa.

Posi el ratolí al punt desitjat per veure el nom de l'estació.

Feu clic per veure les observacions i els pronòstics meteorològics.

Per canviar el mapa: feu clic els botons verds amb una creu de color negre per apropar; al botó verd amb un guió per allunyar la imatge; o en les fletxes verdes per a mapes adjacents.


METAR-TAF: